sensor_id;sensor_type;location;lat;lon;timestamp;P1;durP1;ratioP1;P2;durP2;ratioP2
20203;SDS011;10261;49.010;12.034;2023-01-24T00:00:48;14.10;;;7.50;;
20203;SDS011;10261;49.010;12.034;2023-01-24T00:01:50;11.75;;;7.07;;
20203;SDS011;10261;49.010;12.034;2023-01-24T00:02:53;10.52;;;6.95;;
20203;SDS011;10261;49.010;12.034;2023-01-24T00:03:55;11.80;;;6.82;;
20203;SDS011;10261;49.010;12.034;2023-01-24T00:04:58;9.25;;;6.22;;
20203;SDS011;10261;49.010;12.034;2023-01-24T00:06:00;11.90;;;6.43;;
20203;SDS011;10261;49.010;12.034;2023-01-24T00:07:03;11.65;;;6.75;;
20203;SDS011;10261;49.010;12.034;2023-01-24T00:08:05;12.93;;;6.78;;
20203;SDS011;10261;49.010;12.034;2023-01-24T00:09:09;10.77;;;7.00;;
20203;SDS011;10261;49.010;12.034;2023-01-24T00:10:11;13.48;;;6.68;;
20203;SDS011;10261;49.010;12.034;2023-01-24T00:11:14;12.40;;;6.10;;
20203;SDS011;10261;49.010;12.034;2023-01-24T00:12:16;11.23;;;6.88;;
20203;SDS011;10261;49.010;12.034;2023-01-24T00:13:19;10.18;;;6.65;;
20203;SDS011;10261;49.010;12.034;2023-01-24T00:14:21;10.85;;;5.97;;
20203;SDS011;10261;49.010;12.034;2023-01-24T00:15:24;10.48;;;6.43;;
20203;SDS011;10261;49.010;12.034;2023-01-24T00:16:26;10.07;;;5.75;;
20203;SDS011;10261;49.010;12.034;2023-01-24T00:17:29;10.02;;;6.50;;
20203;SDS011;10261;49.010;12.034;2023-01-24T00:18:31;9.82;;;6.60;;
20203;SDS011;10261;49.010;12.034;2023-01-24T00:19:35;10.38;;;6.70;;
20203;SDS011;10261;49.010;12.034;2023-01-24T00:20:37;9.32;;;5.32;;
20203;SDS011;10261;49.010;12.034;2023-01-24T00:21:40;12.13;;;6.80;;
20203;SDS011;10261;49.010;12.034;2023-01-24T00:22:42;9.07;;;5.85;;
20203;SDS011;10261;49.010;12.034;2023-01-24T00:23:45;11.93;;;7.00;;
20203;SDS011;10261;49.010;12.034;2023-01-24T00:24:52;10.02;;;6.07;;
20203;SDS011;10261;49.010;12.034;2023-01-24T00:25:54;9.75;;;6.07;;
20203;SDS011;10261;49.010;12.034;2023-01-24T00:26:57;6.85;;;4.82;;
20203;SDS011;10261;49.010;12.034;2023-01-24T00:27:59;11.65;;;6.15;;
20203;SDS011;10261;49.010;12.034;2023-01-24T00:29:02;10.30;;;6.05;;
20203;SDS011;10261;49.010;12.034;2023-01-24T00:30:05;10.25;;;5.85;;
20203;SDS011;10261;49.010;12.034;2023-01-24T00:31:08;12.07;;;5.32;;
20203;SDS011;10261;49.010;12.034;2023-01-24T00:32:10;8.23;;;5.75;;
20203;SDS011;10261;49.010;12.034;2023-01-24T00:33:13;9.60;;;5.93;;
20203;SDS011;10261;49.010;12.034;2023-01-24T00:34:15;8.95;;;5.60;;
20203;SDS011;10261;49.010;12.034;2023-01-24T00:35:18;9.32;;;5.63;;
20203;SDS011;10261;49.010;12.034;2023-01-24T00:36:21;8.55;;;5.22;;
20203;SDS011;10261;49.010;12.034;2023-01-24T00:37:24;7.63;;;5.45;;
20203;SDS011;10261;49.010;12.034;2023-01-24T00:38:28;9.63;;;5.78;;
20203;SDS011;10261;49.010;12.034;2023-01-24T00:39:31;12.13;;;5.72;;
20203;SDS011;10261;49.010;12.034;2023-01-24T00:40:35;10.82;;;6.78;;
20203;SDS011;10261;49.010;12.034;2023-01-24T00:41:38;8.23;;;6.43;;
20203;SDS011;10261;49.010;12.034;2023-01-24T00:42:40;11.98;;;5.95;;
20203;SDS011;10261;49.010;12.034;2023-01-24T00:43:42;9.40;;;5.75;;
20203;SDS011;10261;49.010;12.034;2023-01-24T00:44:45;10.30;;;5.55;;
20203;SDS011;10261;49.010;12.034;2023-01-24T00:45:47;6.75;;;5.15;;
20203;SDS011;10261;49.010;12.034;2023-01-24T00:46:51;9.80;;;6.63;;
20203;SDS011;10261;49.010;12.034;2023-01-24T00:47:52;12.15;;;6.50;;
20203;SDS011;10261;49.010;12.034;2023-01-24T00:48:55;9.63;;;6.30;;
20203;SDS011;10261;49.010;12.034;2023-01-24T00:49:58;15.85;;;6.45;;
20203;SDS011;10261;49.010;12.034;2023-01-24T00:51:01;11.88;;;6.78;;
20203;SDS011;10261;49.010;12.034;2023-01-24T00:52:03;13.43;;;7.05;;
20203;SDS011;10261;49.010;12.034;2023-01-24T00:53:06;14.32;;;9.15;;
20203;SDS011;10261;49.010;12.034;2023-01-24T00:54:08;17.33;;;9.30;;
20203;SDS011;10261;49.010;12.034;2023-01-24T00:55:11;13.65;;;7.07;;
20203;SDS011;10261;49.010;12.034;2023-01-24T00:56:15;10.75;;;6.85;;
20203;SDS011;10261;49.010;12.034;2023-01-24T00:57:18;9.82;;;6.07;;
20203;SDS011;10261;49.010;12.034;2023-01-24T00:58:20;10.85;;;6.03;;
20203;SDS011;10261;49.010;12.034;2023-01-24T00:59:23;9.93;;;6.50;;
20203;SDS011;10261;49.010;12.034;2023-01-24T01:00:26;9.23;;;6.00;;
20203;SDS011;10261;49.010;12.034;2023-01-24T01:01:28;11.23;;;6.60;;
20203;SDS011;10261;49.010;12.034;2023-01-24T01:02:31;9.32;;;5.80;;
20203;SDS011;10261;49.010;12.034;2023-01-24T01:03:33;12.55;;;5.65;;
20203;SDS011;10261;49.010;12.034;2023-01-24T01:04:36;7.03;;;4.40;;
20203;SDS011;10261;49.010;12.034;2023-01-24T01:05:38;11.10;;;6.20;;
20203;SDS011;10261;49.010;12.034;2023-01-24T01:06:43;12.43;;;8.25;;
20203;SDS011;10261;49.010;12.034;2023-01-24T01:07:50;15.85;;;8.43;;
20203;SDS011;10261;49.010;12.034;2023-01-24T01:08:53;14.40;;;7.65;;
20203;SDS011;10261;49.010;12.034;2023-01-24T01:09:56;12.02;;;7.35;;
20203;SDS011;10261;49.010;12.034;2023-01-24T01:10:58;12.68;;;7.90;;
20203;SDS011;10261;49.010;12.034;2023-01-24T01:12:03;11.65;;;6.90;;
20203;SDS011;10261;49.010;12.034;2023-01-24T01:13:05;15.10;;;8.02;;
20203;SDS011;10261;49.010;12.034;2023-01-24T01:14:08;10.25;;;6.47;;
20203;SDS011;10261;49.010;12.034;2023-01-24T01:15:10;9.73;;;6.07;;
20203;SDS011;10261;49.010;12.034;2023-01-24T01:16:15;16.58;;;9.35;;
20203;SDS011;10261;49.010;12.034;2023-01-24T01:17:20;9.18;;;5.65;;
20203;SDS011;10261;49.010;12.034;2023-01-24T01:18:22;8.65;;;5.50;;
20203;SDS011;10261;49.010;12.034;2023-01-24T01:19:24;15.88;;;9.38;;
20203;SDS011;10261;49.010;12.034;2023-01-24T01:20:26;12.23;;;7.40;;
20203;SDS011;10261;49.010;12.034;2023-01-24T01:21:29;9.95;;;6.18;;
20203;SDS011;10261;49.010;12.034;2023-01-24T01:22:32;10.85;;;6.00;;
20203;SDS011;10261;49.010;12.034;2023-01-24T01:23:35;6.93;;;4.78;;
20203;SDS011;10261;49.010;12.034;2023-01-24T01:24:37;10.63;;;5.90;;
20203;SDS011;10261;49.010;12.034;2023-01-24T01:25:40;11.55;;;6.40;;
20203;SDS011;10261;49.010;12.034;2023-01-24T01:26:42;10.23;;;6.60;;
20203;SDS011;10261;49.010;12.034;2023-01-24T01:27:46;9.20;;;6.38;;
20203;SDS011;10261;49.010;12.034;2023-01-24T01:28:48;11.05;;;5.70;;
20203;SDS011;10261;49.010;12.034;2023-01-24T01:29:52;7.25;;;5.10;;
20203;SDS011;10261;49.010;12.034;2023-01-24T01:30:54;8.20;;;4.80;;
20203;SDS011;10261;49.010;12.034;2023-01-24T01:31:57;7.10;;;4.78;;
20203;SDS011;10261;49.010;12.034;2023-01-24T01:33:00;6.80;;;4.80;;
20203;SDS011;10261;49.010;12.034;2023-01-24T01:34:03;16.13;;;5.38;;
20203;SDS011;10261;49.010;12.034;2023-01-24T01:35:05;6.35;;;4.70;;
20203;SDS011;10261;49.010;12.034;2023-01-24T01:36:08;7.85;;;4.40;;
20203;SDS011;10261;49.010;12.034;2023-01-24T01:37:10;8.63;;;4.57;;
20203;SDS011;10261;49.010;12.034;2023-01-24T01:38:13;7.55;;;5.10;;
20203;SDS011;10261;49.010;12.034;2023-01-24T01:39:15;7.47;;;4.43;;
20203;SDS011;10261;49.010;12.034;2023-01-24T01:40:18;8.65;;;4.43;;
20203;SDS011;10261;49.010;12.034;2023-01-24T01:41:20;7.38;;;4.78;;
20203;SDS011;10261;49.010;12.034;2023-01-24T01:42:23;7.60;;;4.65;;
20203;SDS011;10261;49.010;12.034;2023-01-24T01:43:27;9.93;;;4.03;;
20203;SDS011;10261;49.010;12.034;2023-01-24T01:44:31;7.57;;;4.55;;
20203;SDS011;10261;49.010;12.034;2023-01-24T01:45:40;6.43;;;4.75;;
20203;SDS011;10261;49.010;12.034;2023-01-24T01:46:45;5.55;;;4.45;;
20203;SDS011;10261;49.010;12.034;2023-01-24T01:47:51;6.13;;;3.70;;
20203;SDS011;10261;49.010;12.034;2023-01-24T01:48:54;7.50;;;4.63;;
20203;SDS011;10261;49.010;12.034;2023-01-24T01:50:03;6.95;;;3.85;;
20203;SDS011;10261;49.010;12.034;2023-01-24T01:51:10;7.68;;;3.92;;
20203;SDS011;10261;49.010;12.034;2023-01-24T01:52:18;7.60;;;4.25;;
20203;SDS011;10261;49.010;12.034;2023-01-24T01:53:21;6.20;;;4.57;;
20203;SDS011;10261;49.010;12.034;2023-01-24T01:54:26;6.15;;;3.88;;
20203;SDS011;10261;49.010;12.034;2023-01-24T01:55:31;5.43;;;3.42;;
20203;SDS011;10261;49.010;12.034;2023-01-24T01:56:38;5.97;;;4.18;;
20203;SDS011;10261;49.010;12.034;2023-01-24T01:57:45;9.23;;;3.90;;
20203;SDS011;10261;49.010;12.034;2023-01-24T01:58:52;4.05;;;3.05;;
20203;SDS011;10261;49.010;12.034;2023-01-24T01:59:57;4.95;;;3.70;;
20203;SDS011;10261;49.010;12.034;2023-01-24T02:01:03;6.65;;;3.70;;
20203;SDS011;10261;49.010;12.034;2023-01-24T02:02:06;5.63;;;3.45;;
20203;SDS011;10261;49.010;12.034;2023-01-24T02:03:12;5.50;;;3.70;;
20203;SDS011;10261;49.010;12.034;2023-01-24T02:04:31;6.68;;;4.53;;
20203;SDS011;10261;49.010;12.034;2023-01-24T02:05:36;8.25;;;4.38;;
20203;SDS011;10261;49.010;12.034;2023-01-24T02:06:42;6.97;;;3.40;;
20203;SDS011;10261;49.010;12.034;2023-01-24T02:07:53;7.78;;;4.20;;
20203;SDS011;10261;49.010;12.034;2023-01-24T02:08:59;8.05;;;4.53;;
20203;SDS011;10261;49.010;12.034;2023-01-24T02:10:03;5.47;;;3.75;;
20203;SDS011;10261;49.010;12.034;2023-01-24T02:11:06;4.90;;;3.60;;
20203;SDS011;10261;49.010;12.034;2023-01-24T02:12:30;7.07;;;3.80;;
20203;SDS011;10261;49.010;12.034;2023-01-24T02:13:39;5.22;;;3.75;;
20203;SDS011;10261;49.010;12.034;2023-01-24T02:14:46;4.30;;;3.42;;
20203;SDS011;10261;49.010;12.034;2023-01-24T02:16:08;5.13;;;3.63;;
20203;SDS011;10261;49.010;12.034;2023-01-24T02:17:10;6.55;;;4.10;;
20203;SDS011;10261;49.010;12.034;2023-01-24T02:18:13;4.57;;;3.20;;
20203;SDS011;10261;49.010;12.034;2023-01-24T02:19:23;6.57;;;3.55;;
20203;SDS011;10261;49.010;12.034;2023-01-24T02:20:46;5.00;;;3.28;;
20203;SDS011;10261;49.010;12.034;2023-01-24T02:21:49;5.00;;;3.53;;
20203;SDS011;10261;49.010;12.034;2023-01-24T02:22:58;6.07;;;3.90;;
20203;SDS011;10261;49.010;12.034;2023-01-24T02:24:09;4.65;;;3.30;;
20203;SDS011;10261;49.010;12.034;2023-01-24T02:25:21;5.90;;;3.83;;
20203;SDS011;10261;49.010;12.034;2023-01-24T02:26:30;4.70;;;3.50;;
20203;SDS011;10261;49.010;12.034;2023-01-24T02:27:32;6.20;;;3.75;;
20203;SDS011;10261;49.010;12.034;2023-01-24T02:28:35;8.27;;;4.57;;
20203;SDS011;10261;49.010;12.034;2023-01-24T02:29:39;9.73;;;4.40;;
20203;SDS011;10261;49.010;12.034;2023-01-24T02:30:41;6.30;;;3.05;;
20203;SDS011;10261;49.010;12.034;2023-01-24T02:31:55;7.30;;;4.20;;
20203;SDS011;10261;49.010;12.034;2023-01-24T02:32:59;6.40;;;3.30;;
20203;SDS011;10261;49.010;12.034;2023-01-24T02:34:10;6.20;;;3.60;;
20203;SDS011;10261;49.010;12.034;2023-01-24T02:35:22;7.47;;;4.28;;
20203;SDS011;10261;49.010;12.034;2023-01-24T02:36:30;6.95;;;3.55;;
20203;SDS011;10261;49.010;12.034;2023-01-24T02:37:36;7.15;;;4.25;;
20203;SDS011;10261;49.010;12.034;2023-01-24T02:38:40;5.35;;;3.55;;
20203;SDS011;10261;49.010;12.034;2023-01-24T02:39:45;6.70;;;4.25;;
20203;SDS011;10261;49.010;12.034;2023-01-24T02:40:52;7.32;;;4.75;;
20203;SDS011;10261;49.010;12.034;2023-01-24T02:41:59;5.30;;;3.75;;
20203;SDS011;10261;49.010;12.034;2023-01-24T02:43:06;6.18;;;3.95;;
20203;SDS011;10261;49.010;12.034;2023-01-24T02:44:09;5.65;;;4.28;;
20203;SDS011;10261;49.010;12.034;2023-01-24T02:45:18;6.40;;;4.20;;
20203;SDS011;10261;49.010;12.034;2023-01-24T02:46:23;4.25;;;3.28;;
20203;SDS011;10261;49.010;12.034;2023-01-24T02:47:26;6.03;;;3.80;;
20203;SDS011;10261;49.010;12.034;2023-01-24T02:48:33;4.88;;;3.95;;
20203;SDS011;10261;49.010;12.034;2023-01-24T02:49:36;3.22;;;2.55;;
20203;SDS011;10261;49.010;12.034;2023-01-24T02:50:38;5.72;;;3.10;;
20203;SDS011;10261;49.010;12.034;2023-01-24T02:51:58;4.50;;;3.22;;
20203;SDS011;10261;49.010;12.034;2023-01-24T02:53:19;8.00;;;3.70;;
20203;SDS011;10261;49.010;12.034;2023-01-24T02:54:32;4.00;;;3.33;;
20203;SDS011;10261;49.010;12.034;2023-01-24T02:55:34;5.63;;;3.65;;
20203;SDS011;10261;49.010;12.034;2023-01-24T02:57:00;5.18;;;3.70;;
20203;SDS011;10261;49.010;12.034;2023-01-24T02:58:21;4.00;;;3.30;;
20203;SDS011;10261;49.010;12.034;2023-01-24T02:59:23;4.38;;;3.15;;
20203;SDS011;10261;49.010;12.034;2023-01-24T03:00:27;5.95;;;3.65;;
20203;SDS011;10261;49.010;12.034;2023-01-24T03:01:30;4.00;;;2.80;;
20203;SDS011;10261;49.010;12.034;2023-01-24T03:02:32;4.65;;;3.25;;
20203;SDS011;10261;49.010;12.034;2023-01-24T03:03:35;5.07;;;3.17;;
20203;SDS011;10261;49.010;12.034;2023-01-24T03:04:37;5.45;;;3.65;;
20203;SDS011;10261;49.010;12.034;2023-01-24T03:05:40;7.05;;;3.20;;
20203;SDS011;10261;49.010;12.034;2023-01-24T03:06:58;3.70;;;2.80;;
20203;SDS011;10261;49.010;12.034;2023-01-24T03:08:01;5.30;;;3.45;;
20203;SDS011;10261;49.010;12.034;2023-01-24T03:09:03;4.75;;;3.42;;
20203;SDS011;10261;49.010;12.034;2023-01-24T03:10:19;4.90;;;3.65;;
20203;SDS011;10261;49.010;12.034;2023-01-24T03:11:21;2.92;;;2.40;;
20203;SDS011;10261;49.010;12.034;2023-01-24T03:12:25;9.70;;;3.47;;
20203;SDS011;10261;49.010;12.034;2023-01-24T03:13:46;5.00;;;2.83;;
20203;SDS011;10261;49.010;12.034;2023-01-24T03:15:07;4.97;;;2.90;;
20203;SDS011;10261;49.010;12.034;2023-01-24T03:16:28;6.22;;;3.03;;
20203;SDS011;10261;49.010;12.034;2023-01-24T03:17:48;5.40;;;3.20;;
20203;SDS011;10261;49.010;12.034;2023-01-24T03:19:08;4.05;;;3.13;;
20203;SDS011;10261;49.010;12.034;2023-01-24T03:20:29;4.18;;;2.67;;
20203;SDS011;10261;49.010;12.034;2023-01-24T03:21:49;4.93;;;3.13;;
20203;SDS011;10261;49.010;12.034;2023-01-24T03:23:10;6.95;;;3.10;;
20203;SDS011;10261;49.010;12.034;2023-01-24T03:24:31;3.78;;;2.22;;
20203;SDS011;10261;49.010;12.034;2023-01-24T03:25:53;3.75;;;3.13;;
20203;SDS011;10261;49.010;12.034;2023-01-24T03:27:14;4.30;;;3.20;;
20203;SDS011;10261;49.010;12.034;2023-01-24T03:28:36;4.88;;;2.85;;
20203;SDS011;10261;49.010;12.034;2023-01-24T03:29:57;3.60;;;2.78;;
20203;SDS011;10261;49.010;12.034;2023-01-24T03:31:17;5.32;;;2.80;;
20203;SDS011;10261;49.010;12.034;2023-01-24T03:32:38;3.65;;;2.70;;
20203;SDS011;10261;49.010;12.034;2023-01-24T03:33:59;4.88;;;2.80;;
20203;SDS011;10261;49.010;12.034;2023-01-24T03:35:19;3.88;;;2.67;;
20203;SDS011;10261;49.010;12.034;2023-01-24T03:36:23;5.22;;;2.78;;
20203;SDS011;10261;49.010;12.034;2023-01-24T03:37:32;5.72;;;3.58;;
20203;SDS011;10261;49.010;12.034;2023-01-24T03:38:53;3.47;;;3.17;;
20203;SDS011;10261;49.010;12.034;2023-01-24T03:40:14;5.50;;;3.08;;
20203;SDS011;10261;49.010;12.034;2023-01-24T03:41:17;4.03;;;2.40;;
20203;SDS011;10261;49.010;12.034;2023-01-24T03:42:19;4.93;;;2.80;;
20203;SDS011;10261;49.010;12.034;2023-01-24T03:43:22;3.53;;;2.63;;
20203;SDS011;10261;49.010;12.034;2023-01-24T03:44:25;3.85;;;3.22;;
20203;SDS011;10261;49.010;12.034;2023-01-24T03:45:30;3.75;;;2.60;;
20203;SDS011;10261;49.010;12.034;2023-01-24T03:46:33;4.40;;;3.00;;
20203;SDS011;10261;49.010;12.034;2023-01-24T03:47:40;5.20;;;2.70;;
20203;SDS011;10261;49.010;12.034;2023-01-24T03:48:46;5.55;;;3.15;;
20203;SDS011;10261;49.010;12.034;2023-01-24T03:49:49;3.70;;;2.85;;
20203;SDS011;10261;49.010;12.034;2023-01-24T03:51:10;7.18;;;3.15;;
20203;SDS011;10261;49.010;12.034;2023-01-24T03:52:31;5.22;;;2.92;;
20203;SDS011;10261;49.010;12.034;2023-01-24T03:53:33;3.40;;;2.70;;
20203;SDS011;10261;49.010;12.034;2023-01-24T03:54:35;4.18;;;2.60;;
20203;SDS011;10261;49.010;12.034;2023-01-24T03:55:37;4.70;;;3.05;;
20203;SDS011;10261;49.010;12.034;2023-01-24T03:56:41;4.55;;;2.80;;
20203;SDS011;10261;49.010;12.034;2023-01-24T03:57:43;3.35;;;2.42;;
20203;SDS011;10261;49.010;12.034;2023-01-24T03:58:46;3.63;;;2.38;;
20203;SDS011;10261;49.010;12.034;2023-01-24T03:59:51;3.90;;;2.95;;
20203;SDS011;10261;49.010;12.034;2023-01-24T04:00:53;3.22;;;2.83;;
20203;SDS011;10261;49.010;12.034;2023-01-24T04:01:56;3.05;;;2.67;;
20203;SDS011;10261;49.010;12.034;2023-01-24T04:02:58;4.72;;;3.85;;
20203;SDS011;10261;49.010;12.034;2023-01-24T04:04:01;4.82;;;2.85;;
20203;SDS011;10261;49.010;12.034;2023-01-24T04:05:03;9.07;;;2.92;;
20203;SDS011;10261;49.010;12.034;2023-01-24T04:06:16;5.30;;;3.50;;
20203;SDS011;10261;49.010;12.034;2023-01-24T04:07:19;5.00;;;3.20;;
20203;SDS011;10261;49.010;12.034;2023-01-24T04:08:27;4.55;;;2.40;;
20203;SDS011;10261;49.010;12.034;2023-01-24T04:09:30;4.15;;;2.60;;
20203;SDS011;10261;49.010;12.034;2023-01-24T04:10:32;4.57;;;2.78;;
20203;SDS011;10261;49.010;12.034;2023-01-24T04:11:35;3.25;;;2.53;;
20203;SDS011;10261;49.010;12.034;2023-01-24T04:12:37;4.10;;;2.92;;
20203;SDS011;10261;49.010;12.034;2023-01-24T04:13:40;4.35;;;2.80;;
20203;SDS011;10261;49.010;12.034;2023-01-24T04:14:42;3.85;;;2.40;;
20203;SDS011;10261;49.010;12.034;2023-01-24T04:15:46;5.30;;;3.03;;
20203;SDS011;10261;49.010;12.034;2023-01-24T04:16:48;2.55;;;1.95;;
20203;SDS011;10261;49.010;12.034;2023-01-24T04:17:53;5.57;;;3.33;;
20203;SDS011;10261;49.010;12.034;2023-01-24T04:18:57;4.50;;;2.55;;
20203;SDS011;10261;49.010;12.034;2023-01-24T04:20:00;3.78;;;2.47;;
20203;SDS011;10261;49.010;12.034;2023-01-24T04:21:02;6.20;;;3.30;;
20203;SDS011;10261;49.010;12.034;2023-01-24T04:22:06;3.60;;;3.30;;
20203;SDS011;10261;49.010;12.034;2023-01-24T04:23:09;3.40;;;2.53;;
20203;SDS011;10261;49.010;12.034;2023-01-24T04:24:13;2.63;;;2.22;;
20203;SDS011;10261;49.010;12.034;2023-01-24T04:25:15;4.55;;;2.42;;
20203;SDS011;10261;49.010;12.034;2023-01-24T04:26:18;3.17;;;2.80;;
20203;SDS011;10261;49.010;12.034;2023-01-24T04:27:20;4.15;;;2.78;;
20203;SDS011;10261;49.010;12.034;2023-01-24T04:28:23;3.33;;;2.70;;
20203;SDS011;10261;49.010;12.034;2023-01-24T04:29:25;2.65;;;2.00;;
20203;SDS011;10261;49.010;12.034;2023-01-24T04:30:28;2.88;;;2.22;;
20203;SDS011;10261;49.010;12.034;2023-01-24T04:31:32;4.65;;;2.30;;
20203;SDS011;10261;49.010;12.034;2023-01-24T04:32:35;3.05;;;2.40;;
20203;SDS011;10261;49.010;12.034;2023-01-24T04:33:38;3.45;;;2.85;;
20203;SDS011;10261;49.010;12.034;2023-01-24T04:34:41;2.90;;;2.58;;
20203;SDS011;10261;49.010;12.034;2023-01-24T04:35:43;3.42;;;2.60;;
20203;SDS011;10261;49.010;12.034;2023-01-24T04:36:46;2.97;;;2.67;;
20203;SDS011;10261;49.010;12.034;2023-01-24T04:37:48;3.35;;;2.58;;
20203;SDS011;10261;49.010;12.034;2023-01-24T04:38:51;3.97;;;2.35;;
20203;SDS011;10261;49.010;12.034;2023-01-24T04:39:56;3.67;;;2.33;;
20203;SDS011;10261;49.010;12.034;2023-01-24T04:40:59;2.53;;;2.10;;
20203;SDS011;10261;49.010;12.034;2023-01-24T04:42:02;3.30;;;2.50;;
20203;SDS011;10261;49.010;12.034;2023-01-24T04:43:06;3.85;;;2.40;;
20203;SDS011;10261;49.010;12.034;2023-01-24T04:44:08;3.42;;;2.42;;
20203;SDS011;10261;49.010;12.034;2023-01-24T04:45:11;5.25;;;2.70;;
20203;SDS011;10261;49.010;12.034;2023-01-24T04:46:13;4.05;;;2.90;;
20203;SDS011;10261;49.010;12.034;2023-01-24T04:47:17;3.95;;;2.63;;
20203;SDS011;10261;49.010;12.034;2023-01-24T04:48:20;5.97;;;3.80;;
20203;SDS011;10261;49.010;12.034;2023-01-24T04:49:22;4.07;;;3.47;;
20203;SDS011;10261;49.010;12.034;2023-01-24T04:50:24;4.78;;;3.15;;
20203;SDS011;10261;49.010;12.034;2023-01-24T04:51:27;5.53;;;2.70;;
20203;SDS011;10261;49.010;12.034;2023-01-24T04:52:29;3.42;;;2.85;;
20203;SDS011;10261;49.010;12.034;2023-01-24T04:53:32;4.65;;;2.47;;
20203;SDS011;10261;49.010;12.034;2023-01-24T04:54:36;3.47;;;2.97;;
20203;SDS011;10261;49.010;12.034;2023-01-24T04:55:38;5.53;;;3.90;;
20203;SDS011;10261;49.010;12.034;2023-01-24T04:56:41;3.92;;;3.05;;
20203;SDS011;10261;49.010;12.034;2023-01-24T04:57:43;4.80;;;2.80;;
20203;SDS011;10261;49.010;12.034;2023-01-24T04:58:46;5.15;;;3.05;;
20203;SDS011;10261;49.010;12.034;2023-01-24T04:59:48;4.63;;;2.90;;
20203;SDS011;10261;49.010;12.034;2023-01-24T05:00:52;3.97;;;2.75;;
20203;SDS011;10261;49.010;12.034;2023-01-24T05:01:54;3.38;;;2.88;;
20203;SDS011;10261;49.010;12.034;2023-01-24T05:02:58;3.80;;;2.80;;
20203;SDS011;10261;49.010;12.034;2023-01-24T05:04:00;3.70;;;2.75;;
20203;SDS011;10261;49.010;12.034;2023-01-24T05:05:04;5.20;;;2.97;;
20203;SDS011;10261;49.010;12.034;2023-01-24T05:06:07;5.03;;;2.50;;
20203;SDS011;10261;49.010;12.034;2023-01-24T05:07:10;4.38;;;2.65;;
20203;SDS011;10261;49.010;12.034;2023-01-24T05:08:12;4.35;;;2.95;;
20203;SDS011;10261;49.010;12.034;2023-01-24T05:09:15;4.82;;;3.67;;
20203;SDS011;10261;49.010;12.034;2023-01-24T05:10:17;4.55;;;2.78;;
20203;SDS011;10261;49.010;12.034;2023-01-24T05:11:22;4.20;;;3.25;;
20203;SDS011;10261;49.010;12.034;2023-01-24T05:12:25;5.00;;;3.63;;
20203;SDS011;10261;49.010;12.034;2023-01-24T05:13:28;5.45;;;3.47;;
20203;SDS011;10261;49.010;12.034;2023-01-24T05:14:30;4.93;;;3.78;;
20203;SDS011;10261;49.010;12.034;2023-01-24T05:15:33;4.90;;;3.30;;
20203;SDS011;10261;49.010;12.034;2023-01-24T05:16:35;5.35;;;3.25;;
20203;SDS011;10261;49.010;12.034;2023-01-24T05:17:38;4.88;;;3.10;;
20203;SDS011;10261;49.010;12.034;2023-01-24T05:18:41;3.88;;;3.20;;
20203;SDS011;10261;49.010;12.034;2023-01-24T05:19:45;5.28;;;3.10;;
20203;SDS011;10261;49.010;12.034;2023-01-24T05:20:46;7.45;;;3.28;;
20203;SDS011;10261;49.010;12.034;2023-01-24T05:21:49;5.35;;;3.47;;
20203;SDS011;10261;49.010;12.034;2023-01-24T05:22:51;5.50;;;3.35;;
20203;SDS011;10261;49.010;12.034;2023-01-24T05:23:57;5.55;;;3.72;;
20203;SDS011;10261;49.010;12.034;2023-01-24T05:24:59;3.35;;;2.90;;
20203;SDS011;10261;49.010;12.034;2023-01-24T05:26:02;6.38;;;3.22;;
20203;SDS011;10261;49.010;12.034;2023-01-24T05:27:04;4.05;;;3.20;;
20203;SDS011;10261;49.010;12.034;2023-01-24T05:28:07;5.05;;;3.00;;
20203;SDS011;10261;49.010;12.034;2023-01-24T05:29:09;5.07;;;3.15;;
20203;SDS011;10261;49.010;12.034;2023-01-24T05:30:12;3.17;;;2.88;;
20203;SDS011;10261;49.010;12.034;2023-01-24T05:31:15;3.80;;;2.60;;
20203;SDS011;10261;49.010;12.034;2023-01-24T05:32:18;4.45;;;2.92;;
20203;SDS011;10261;49.010;12.034;2023-01-24T05:33:20;4.07;;;3.22;;
20203;SDS011;10261;49.010;12.034;2023-01-24T05:34:24;5.20;;;3.50;;
20203;SDS011;10261;49.010;12.034;2023-01-24T05:35:26;3.92;;;2.58;;
20203;SDS011;10261;49.010;12.034;2023-01-24T05:36:30;4.25;;;2.60;;
20203;SDS011;10261;49.010;12.034;2023-01-24T05:37:32;4.72;;;3.20;;
20203;SDS011;10261;49.010;12.034;2023-01-24T05:38:37;4.25;;;3.03;;
20203;SDS011;10261;49.010;12.034;2023-01-24T05:39:39;3.22;;;2.90;;
20203;SDS011;10261;49.010;12.034;2023-01-24T05:40:43;5.68;;;3.78;;
20203;SDS011;10261;49.010;12.034;2023-01-24T05:41:44;3.58;;;2.95;;
20203;SDS011;10261;49.010;12.034;2023-01-24T05:42:48;3.58;;;2.45;;
20203;SDS011;10261;49.010;12.034;2023-01-24T05:43:49;4.93;;;3.33;;
20203;SDS011;10261;49.010;12.034;2023-01-24T05:44:52;5.35;;;2.92;;
20203;SDS011;10261;49.010;12.034;2023-01-24T05:45:56;5.97;;;3.28;;
20203;SDS011;10261;49.010;12.034;2023-01-24T05:47:01;5.15;;;3.33;;
20203;SDS011;10261;49.010;12.034;2023-01-24T05:48:04;4.10;;;3.00;;
20203;SDS011;10261;49.010;12.034;2023-01-24T05:49:07;3.72;;;2.78;;
20203;SDS011;10261;49.010;12.034;2023-01-24T05:50:11;4.47;;;2.80;;
20203;SDS011;10261;49.010;12.034;2023-01-24T05:51:15;3.92;;;2.83;;
20203;SDS011;10261;49.010;12.034;2023-01-24T05:52:18;5.88;;;3.40;;
20203;SDS011;10261;49.010;12.034;2023-01-24T05:53:23;4.30;;;3.30;;
20203;SDS011;10261;49.010;12.034;2023-01-24T05:54:25;5.00;;;2.53;;
20203;SDS011;10261;49.010;12.034;2023-01-24T05:55:28;4.80;;;3.13;;
20203;SDS011;10261;49.010;12.034;2023-01-24T05:56:30;5.03;;;3.28;;
20203;SDS011;10261;49.010;12.034;2023-01-24T05:57:33;4.85;;;3.25;;
20203;SDS011;10261;49.010;12.034;2023-01-24T05:58:37;4.20;;;2.53;;
20203;SDS011;10261;49.010;12.034;2023-01-24T05:59:41;4.60;;;2.58;;
20203;SDS011;10261;49.010;12.034;2023-01-24T06:00:43;4.35;;;2.85;;
20203;SDS011;10261;49.010;12.034;2023-01-24T06:01:46;3.50;;;3.05;;
20203;SDS011;10261;49.010;12.034;2023-01-24T06:02:48;3.88;;;2.83;;
20203;SDS011;10261;49.010;12.034;2023-01-24T06:03:51;3.92;;;2.88;;
20203;SDS011;10261;49.010;12.034;2023-01-24T06:04:55;4.50;;;2.95;;
20203;SDS011;10261;49.010;12.034;2023-01-24T06:05:58;4.53;;;3.10;;
20203;SDS011;10261;49.010;12.034;2023-01-24T06:07:01;7.32;;;3.50;;
20203;SDS011;10261;49.010;12.034;2023-01-24T06:08:04;4.25;;;3.20;;
20203;SDS011;10261;49.010;12.034;2023-01-24T06:09:06;5.03;;;3.17;;
20203;SDS011;10261;49.010;12.034;2023-01-24T06:10:10;3.72;;;3.05;;
20203;SDS011;10261;49.010;12.034;2023-01-24T06:11:13;4.18;;;3.05;;
20203;SDS011;10261;49.010;12.034;2023-01-24T06:12:17;6.22;;;3.08;;
20203;SDS011;10261;49.010;12.034;2023-01-24T06:13:19;3.63;;;2.45;;
20203;SDS011;10261;49.010;12.034;2023-01-24T06:14:22;5.28;;;3.17;;
20203;SDS011;10261;49.010;12.034;2023-01-24T06:15:24;3.95;;;3.17;;
20203;SDS011;10261;49.010;12.034;2023-01-24T06:16:26;5.45;;;2.65;;
20203;SDS011;10261;49.010;12.034;2023-01-24T06:17:30;5.43;;;3.17;;
20203;SDS011;10261;49.010;12.034;2023-01-24T06:18:32;4.28;;;3.05;;
20203;SDS011;10261;49.010;12.034;2023-01-24T06:19:36;3.58;;;2.97;;
20203;SDS011;10261;49.010;12.034;2023-01-24T06:20:39;4.43;;;3.47;;
20203;SDS011;10261;49.010;12.034;2023-01-24T06:21:44;4.53;;;2.85;;
20203;SDS011;10261;49.010;12.034;2023-01-24T06:22:49;5.18;;;3.33;;
20203;SDS011;10261;49.010;12.034;2023-01-24T06:23:54;5.65;;;3.40;;
20203;SDS011;10261;49.010;12.034;2023-01-24T06:24:57;6.20;;;3.78;;
20203;SDS011;10261;49.010;12.034;2023-01-24T06:26:00;3.25;;;2.95;;